»·PEaware :: TPX480 KLGB-KLAS

TPX480 :: KLGB-KLAS

FLIGHT INFORMATION

Flight Status: Arrived
Operator: ATP Experience
More flights by this operator :: More flights under this callsign
Pilot: Dave P. (45)
Aircraft: BOEING 737-600
(B736)
More flights by this aircraft type
Origin: KLGB Long Beach
United States
Destination: KLAS McCarran Intl
United States
More flights between these airports :: More routes between these airports
Route: +ZOOMM2 MISEN KEPEC6
File this flight plan on PilotEdge
Remarks: PBN / A1B1C1D1S1S2 DOF / 181016 REG / N736PM OPR / TPX PER / C RMK / TCAS SIMBRIEF
Altitude:
(Current/Filed)
27,000ft
Speed:
(Current/Filed)
459kts
Departed: 15-Oct-18 05:17 PM
Arrived: 15-Oct-18 06:14 PM
Distance/Time
Traveled:
201nm/0:57
Distance/Time
To Go:
Arrived

Flight Plot

Page will automatically refresh every two minutes.

Flight plan parsing failed; only flown route is shown


Map Options




Map Legend


Flown Route
Filed Route
Departure Airport
Arrival Airport
Navaid (VOR, NDB)
Fix

Horizontal Profiles

Position Reports

Time Latitude Longitude Heading Altitude Ground
Speed
15-Oct-18 16:48 33.819069 -118.146337 90 67ft 0kts
15-Oct-18 16:49 33.819069 -118.146337 90 67ft 0kts
15-Oct-18 16:50 33.819069 -118.146337 90 67ft 0kts
15-Oct-18 16:51 33.819069 -118.146291 90 67ft 0kts
15-Oct-18 16:52 33.819069 -118.146291 90 67ft 0kts
15-Oct-18 16:53 33.819069 -118.146291 90 67ft 0kts
15-Oct-18 16:54 33.819069 -118.146291 90 67ft 0kts
15-Oct-18 16:55 33.819069 -118.146291 90 67ft 0kts
15-Oct-18 16:56 33.819069 -118.146291 90 67ft 0kts
15-Oct-18 16:57 33.819069 -118.146291 90 67ft 0kts
15-Oct-18 16:58 33.819069 -118.146291 90 67ft 0kts
15-Oct-18 16:59 33.819069 -118.146291 90 67ft 0kts
15-Oct-18 17:00 33.819069 -118.146291 90 67ft 0kts
15-Oct-18 17:01 33.819069 -118.146291 90 67ft 0kts
15-Oct-18 17:02 33.819069 -118.146291 90 67ft 0kts
15-Oct-18 17:03 33.819069 -118.146291 90 67ft 0kts
15-Oct-18 17:04 33.819069 -118.146291 90 67ft 0kts
15-Oct-18 17:05 33.819069 -118.146291 90 67ft 0kts
15-Oct-18 17:06 33.819069 -118.146291 90 67ft 0kts
15-Oct-18 17:07 33.819069 -118.146291 90 67ft 0kts
15-Oct-18 17:08 33.819065 -118.146448 81 67ft 2kts
15-Oct-18 17:09 33.818734 -118.146919 21 67ft 0kts
15-Oct-18 17:10 33.818734 -118.146919 21 67ft 0kts
15-Oct-18 17:11 33.818735 -118.146919 21 67ft 0kts
15-Oct-18 17:12 33.818736 -118.146918 21 67ft 0kts
15-Oct-18 17:13 33.821461 -118.147132 338 67ft 9kts
15-Oct-18 17:14 33.821701 -118.152537 270 67ft 14kts
15-Oct-18 17:15 33.821750 -118.157844 279 67ft 10kts
15-Oct-18 17:16 33.824615 -118.161518 315 67ft 14kts
15-Oct-18 17:17 33.825522 -118.162302 15 67ft 0kts
15-Oct-18 17:18 33.826118 -118.161704 66 67ft 6kts
15-Oct-18 17:19 33.818580 -118.152344 134 68ft 126kts
15-Oct-18 17:20 33.788122 -118.115100 132 1627ft 186kts
15-Oct-18 17:21 33.747521 -118.065838 132 2998ft 215kts
15-Oct-18 17:22 33.705282 -118.016079 132 2995ft 210kts
15-Oct-18 17:23 33.663506 -117.966935 132 2993ft 211kts
15-Oct-18 17:24 33.618467 -117.913824 132 4329ft 260kts
15-Oct-18 17:25 33.551451 -117.916822 238 6940ft 299kts
15-Oct-18 17:26 33.570971 -117.999079 341 9699ft 274kts
15-Oct-18 17:27 33.648203 -117.993058 10 12491ft 312kts
15-Oct-18 17:28 33.738289 -117.976357 10 15541ft 335kts
15-Oct-18 17:29 33.832109 -117.958759 9 18710ft 347kts
15-Oct-18 17:30 33.925494 -117.923411 29 21499ft 365kts
15-Oct-18 17:31 34.009940 -117.850476 34 23070ft 378kts
15-Oct-18 17:32 34.092909 -117.769497 41 25343ft 391kts
15-Oct-18 17:33 34.164221 -117.666916 46 27063ft 405kts
15-Oct-18 17:34 34.235051 -117.561416 46 27090ft 401kts
15-Oct-18 17:35 34.305261 -117.456571 46 27125ft 400kts
15-Oct-18 17:36 34.375401 -117.352020 46 27154ft 400kts
15-Oct-18 17:37 34.445371 -117.247030 46 27181ft 401kts
15-Oct-18 17:38 34.515119 -117.141881 46 27208ft 400kts
15-Oct-18 17:39 34.585690 -117.037588 45 27212ft 399kts
15-Oct-18 17:40 34.644516 -116.951829 46 27217ft 398kts
15-Oct-18 17:41 34.715612 -116.848456 46 27207ft 399kts
15-Oct-18 17:42 34.786208 -116.744804 46 27202ft 397kts
15-Oct-18 17:43 34.858204 -116.642862 39 27202ft 394kts
15-Oct-18 17:44 34.942840 -116.559101 35 27204ft 388kts
15-Oct-18 17:45 35.027453 -116.476859 36 26603ft 381kts
15-Oct-18 17:46 35.107948 -116.397309 39 24467ft 361kts
15-Oct-18 17:47 35.174500 -116.314664 42 24206ft 315kts
15-Oct-18 17:48 35.236144 -116.236504 43 21171ft 341kts
15-Oct-18 17:49 35.303476 -116.151384 43 20136ft 352kts
15-Oct-18 17:50 35.371115 -116.066169 43 19045ft 346kts
15-Oct-18 17:51 35.437680 -115.982265 43 17773ft 341kts
15-Oct-18 17:52 35.503443 -115.899308 44 16315ft 336kts
15-Oct-18 17:53 35.568125 -115.817087 44 15068ft 329kts
15-Oct-18 17:54 35.627697 -115.741096 44 13920ft 288kts
15-Oct-18 17:55 35.680900 -115.673151 44 13006ft 267kts
15-Oct-18 17:56 35.732995 -115.606572 44 13012ft 272kts
15-Oct-18 17:57 35.788465 -115.575290 8 13015ft 274kts
15-Oct-18 17:58 35.877471 -115.568892 5 13017ft 274kts
15-Oct-18 17:59 35.953826 -115.562755 19 13007ft 272kts
15-Oct-18 18:00 35.991786 -115.502753 65 12368ft 280kts
15-Oct-18 18:01 36.022952 -115.401264 65 11282ft 255kts
15-Oct-18 18:02 36.028107 -115.329040 90 10467ft 258kts
15-Oct-18 18:03 36.021411 -115.240925 91 9451ft 257kts
15-Oct-18 18:04 36.015193 -115.152624 91 8598ft 257kts
15-Oct-18 18:05 36.009627 -115.068918 90 7997ft 230kts
15-Oct-18 18:06 35.975968 -115.013543 182 7443ft 250kts
15-Oct-18 18:07 35.907443 -115.031507 191 7019ft 252kts
15-Oct-18 18:08 35.839933 -115.054981 223 6960ft 252kts
15-Oct-18 18:09 35.840722 -115.130880 291 6057ft 232kts
15-Oct-18 18:10 35.859830 -115.205442 291 5806ft 212kts
15-Oct-18 18:11 35.887864 -115.261444 354 5011ft 197kts
15-Oct-18 18:12 35.940833 -115.246369 22 5038ft 194kts
15-Oct-18 18:13 35.986386 -115.221027 25 4384ft 166kts
15-Oct-18 18:14 36.026339 -115.198224 25 3434ft 149kts
15-Oct-18 18:15 36.062164 -115.177748 26 2574ft 130kts
15-Oct-18 18:16 36.088388 -115.162737 23 2188ft 18kts
15-Oct-18 18:17 36.088373 -115.160712 114 2188ft 8kts
15-Oct-18 18:18 36.087597 -115.158559 113 2188ft 0kts
15-Oct-18 18:19 36.084203 -115.156479 156 2188ft 21kts
15-Oct-18 18:20 36.078944 -115.153432 139 2188ft 12kts
15-Oct-18 18:21 36.078547 -115.147597 96 2188ft 20kts
15-Oct-18 18:22 36.078231 -115.141447 90 2188ft 12kts
15-Oct-18 18:23 36.079378 -115.138934 48 2188ft 10kts
15-Oct-18 18:24 36.080307 -115.139117 316 2188ft 0kts
15-Oct-18 18:25 36.080307 -115.139117 316 2188ft 0kts
15-Oct-18 18:26 36.080307 -115.139117 316 2188ft 0kts

Navigation Log

Ident Type
Flight plan parsing failed, navigation log unavailable